Time;durP1;ratioP1;P1;durP2;ratioP2;P2;SDS_P1;SDS_P2;PMS_P1;PMS_P2;Temp;Humidity;BMP_temperature;BMP_pressure;BME280_temperature;BME280_humidity;BME280_pressure;Samples;Min_cycle;Max_cycle;Signal;HPM_P1;HPM_P2
2024/01/11 00:02:17;;;;;;;9.57;2.63;;;3.70;99.90;;;;;;5111566;28;20038;-86
2024/01/11 00:04:43;;;;;;;6.20;2.42;;;3.70;99.90;;;;;;5112108;28;20476;-87
2024/01/11 00:07:09;;;;;;;6.68;2.45;;;3.70;99.90;;;;;;5112882;28;20050;-87
2024/01/11 00:09:42;;;;;;;6.68;2.72;;;3.70;99.90;;;;;;5112627;28;20016;-87
2024/01/11 00:12:08;;;;;;;10.02;2.60;;;3.70;99.90;;;;;;5110632;28;20086;-86
2024/01/11 00:14:35;;;;;;;12.57;3.42;;;3.70;99.90;;;;;;5111043;28;20488;-87
2024/01/11 00:17:01;;;;;;;9.55;2.90;;;3.70;99.90;;;;;;5111330;28;20023;-86
2024/01/11 00:19:27;;;;;;;8.02;2.30;;;3.80;99.90;;;;;;5110919;28;20560;-86
2024/01/11 00:21:53;;;;;;;14.88;3.75;;;3.70;99.90;;;;;;5111849;28;20148;-87
2024/01/11 00:24:19;;;;;;;9.95;2.50;;;3.70;99.90;;;;;;5113350;28;20506;-87
2024/01/11 00:26:45;;;;;;;12.30;2.85;;;3.70;99.90;;;;;;5093410;28;20499;-86
2024/01/11 00:29:10;;;;;;;8.90;3.20;;;3.70;99.90;;;;;;5094185;28;20020;-86
2024/01/11 00:31:37;;;;;;;8.73;2.40;;;3.70;99.90;;;;;;5112332;28;20043;-88
2024/01/11 00:34:03;;;;;;;10.57;3.08;;;3.70;99.90;;;;;;5094694;28;20027;-89
2024/01/11 00:36:30;;;;;;;11.68;3.03;;;3.70;99.90;;;;;;5096685;28;20019;-87
2024/01/11 00:38:56;;;;;;;8.27;2.20;;;3.70;99.90;;;;;;5093467;28;20031;-87
2024/01/11 00:41:21;;;;;;;11.63;2.30;;;3.70;99.90;;;;;;5094675;28;20477;-88
2024/01/11 00:43:47;;;;;;;10.80;3.75;;;3.70;99.90;;;;;;5114648;28;20540;-87
2024/01/11 00:46:13;;;;;;;7.55;2.10;;;3.70;99.90;;;;;;5094968;28;20119;-87
2024/01/11 00:48:38;;;;;;;14.25;3.10;;;3.70;99.90;;;;;;5094634;28;20426;-90
2024/01/11 00:51:05;;;;;;;10.93;2.08;;;3.70;99.90;;;;;;5095779;28;20106;-88
2024/01/11 00:53:31;;;;;;;13.07;2.40;;;3.70;99.90;;;;;;5096943;28;20080;-88
2024/01/11 00:55:57;;;;;;;5.70;2.00;;;3.70;99.90;;;;;;5115122;28;20027;-88
2024/01/11 00:58:23;;;;;;;11.68;2.45;;;3.70;99.90;;;;;;5094538;28;20502;-86
2024/01/11 01:00:49;;;;;;;7.57;1.75;;;3.70;99.90;;;;;;5114368;28;20041;-87
2024/01/11 01:03:16;;;;;;;15.18;3.20;;;3.70;99.90;;;;;;5096184;28;20026;-87
2024/01/11 01:05:42;;;;;;;10.75;2.50;;;3.70;99.90;;;;;;5094250;28;20090;-87
2024/01/11 01:08:08;;;;;;;9.45;2.03;;;3.70;99.90;;;;;;5094912;28;20074;-86
2024/01/11 01:10:33;;;;;;;12.98;2.13;;;3.70;99.90;;;;;;5094640;28;20047;-87
2024/01/11 01:12:59;;;;;;;11.52;2.30;;;3.70;99.90;;;;;;5112197;28;20020;-86
2024/01/11 01:15:24;;;;;;;6.40;1.85;;;3.70;99.90;;;;;;5111942;28;20396;-87
2024/01/11 01:17:50;;;;;;;13.60;2.83;;;3.70;99.90;;;;;;5113544;28;20036;-87
2024/01/11 01:20:16;;;;;;;17.58;2.72;;;3.70;99.90;;;;;;5112389;28;20051;-87
2024/01/11 01:22:41;;;;;;;13.93;2.42;;;3.70;99.90;;;;;;5093802;28;20103;-87
2024/01/11 01:25:07;;;;;;;11.77;2.58;;;3.70;99.90;;;;;;5092486;28;20020;-86
2024/01/11 01:27:33;;;;;;;7.00;2.40;;;3.70;99.90;;;;;;5093274;28;20481;-87
2024/01/11 01:29:59;;;;;;;12.93;2.28;;;3.70;99.90;;;;;;5093517;28;20028;-87
2024/01/11 01:32:24;;;;;;;9.98;2.65;;;3.70;99.90;;;;;;5093576;28;20028;-87
2024/01/11 01:34:50;;;;;;;7.25;2.25;;;3.70;99.90;;;;;;5094488;28;20020;-86
2024/01/11 01:37:16;;;;;;;8.27;2.50;;;3.70;99.90;;;;;;5094338;28;20027;-86
2024/01/11 01:39:42;;;;;;;15.25;3.80;;;3.70;99.90;;;;;;5094677;28;20160;-87
2024/01/11 01:42:08;;;;;;;10.65;3.20;;;3.70;99.90;;;;;;5112126;28;20023;-87
2024/01/11 01:44:34;;;;;;;7.60;2.63;;;3.70;99.90;;;;;;5093504;28;20028;-86
2024/01/11 01:47:02;;;;;;;12.60;3.05;;;3.70;99.90;;;;;;5093962;28;20016;-87
2024/01/11 01:49:28;;;;;;;13.77;3.40;;;3.70;99.90;;;;;;5111783;28;20041;-87
2024/01/11 01:51:55;;;;;;;11.65;2.95;;;3.70;99.90;;;;;;5093509;28;20032;-86
2024/01/11 01:54:22;;;;;;;8.77;2.83;;;3.70;99.90;;;;;;5094009;28;20568;-87
2024/01/11 01:56:48;;;;;;;11.48;3.05;;;3.70;99.90;;;;;;5093215;28;20031;-86
2024/01/11 01:59:17;;;;;;;6.90;2.60;;;3.70;99.90;;;;;;5092682;28;20071;-86
2024/01/11 02:01:42;;;;;;;15.02;2.90;;;3.70;99.90;;;;;;5093009;28;20050;-86
2024/01/11 02:04:08;;;;;;;10.10;2.67;;;3.70;99.90;;;;;;5092597;28;20053;-87
2024/01/11 02:06:36;;;;;;;11.32;2.70;;;3.70;99.90;;;;;;5091847;28;20019;-85
2024/01/11 02:09:04;;;;;;;7.85;2.80;;;3.70;99.90;;;;;;5091588;28;20019;-86
2024/01/11 02:11:30;;;;;;;12.38;2.67;;;3.70;99.90;;;;;;5091056;28;20027;-84
2024/01/11 02:13:57;;;;;;;7.47;2.78;;;3.70;99.90;;;;;;5091458;28;20024;-86
2024/01/11 02:16:23;;;;;;;13.73;3.03;;;3.70;99.90;;;;;;5110381;28;20024;-85
2024/01/11 02:18:49;;;;;;;9.32;2.80;;;3.70;99.90;;;;;;5092585;28;20024;-85
2024/01/11 02:21:17;;;;;;;7.57;2.63;;;3.70;99.90;;;;;;5093217;28;20124;-86
2024/01/11 02:24:01;;;;;;;11.70;2.60;;;3.70;99.90;;;;;;5094626;28;20032;-85
2024/01/11 02:26:28;;;;;;;10.38;2.45;;;3.70;99.90;;;;;;5112834;28;20035;-86
2024/01/11 02:28:54;;;;;;;6.57;2.70;;;3.70;99.90;;;;;;5096941;28;20031;-86
2024/01/11 02:31:20;;;;;;;15.18;2.60;;;3.70;99.90;;;;;;5099312;28;20416;-86
2024/01/11 02:33:47;;;;;;;8.90;3.17;;;3.60;99.90;;;;;;5098923;28;20487;-87
2024/01/11 02:36:13;;;;;;;9.40;2.90;;;3.60;99.90;;;;;;5116941;28;20019;-85
2024/01/11 02:38:42;;;;;;;9.05;3.10;;;3.70;99.90;;;;;;5098241;28;20143;-86
2024/01/11 02:41:08;;;;;;;8.52;3.80;;;3.70;99.90;;;;;;5115939;28;20495;-85
2024/01/11 02:43:37;;;;;;;10.07;3.28;;;3.70;99.90;;;;;;5097963;28;20036;-85
2024/01/11 02:46:03;;;;;;;9.63;3.15;;;3.60;99.90;;;;;;5097968;28;20456;-85
2024/01/11 02:48:29;;;;;;;8.93;2.80;;;3.60;99.90;;;;;;5097741;28;20092;-85
2024/01/11 02:50:57;;;;;;;13.43;3.10;;;3.60;99.90;;;;;;5097716;28;20028;-85
2024/01/11 02:53:23;;;;;;;8.85;2.80;;;3.60;99.90;;;;;;5115984;28;20023;-85
2024/01/11 02:55:50;;;;;;;8.65;2.90;;;3.60;99.90;;;;;;5115851;28;20054;-86
2024/01/11 02:58:15;;;;;;;6.05;2.40;;;3.60;99.90;;;;;;5097569;28;20074;-86
2024/01/11 03:00:41;;;;;;;10.18;2.60;;;3.60;99.90;;;;;;5097776;28;20488;-86
2024/01/11 03:03:07;;;;;;;13.48;2.92;;;3.60;99.90;;;;;;5097545;28;20024;-86
2024/01/11 03:05:33;;;;;;;10.40;2.30;;;3.50;99.90;;;;;;5097258;28;20047;-86
2024/01/11 03:07:59;;;;;;;9.73;2.58;;;3.60;99.90;;;;;;5097247;28;20114;-85
2024/01/11 03:10:25;;;;;;;10.60;2.80;;;3.60;99.90;;;;;;5115521;28;20109;-86
2024/01/11 03:12:51;;;;;;;9.65;3.00;;;3.60;99.90;;;;;;5115644;28;20102;-86
2024/01/11 03:15:16;;;;;;;5.07;2.05;;;3.50;99.90;;;;;;5088374;28;20031;-88
2024/01/11 03:17:43;;;;;;;5.90;1.95;;;3.50;99.90;;;;;;5098031;28;20076;-86
2024/01/11 03:20:09;;;;;;;9.20;2.78;;;3.50;99.90;;;;;;5097888;28;20024;-86
2024/01/11 03:22:37;;;;;;;5.90;1.83;;;3.50;99.90;;;;;;5115343;28;20031;-86
2024/01/11 03:25:03;;;;;;;5.32;2.33;;;3.50;99.90;;;;;;5097012;28;20031;-87
2024/01/11 03:27:28;;;;;;;13.07;2.03;;;3.50;99.90;;;;;;5115089;28;20020;-86
2024/01/11 03:29:54;;;;;;;8.18;2.30;;;3.50;99.90;;;;;;5097044;28;20024;-86
2024/01/11 03:32:20;;;;;;;6.90;1.98;;;3.50;99.90;;;;;;5096733;28;20135;-87
2024/01/11 03:34:45;;;;;;;6.75;1.52;;;3.50;99.90;;;;;;5096755;28;20069;-86
2024/01/11 03:37:11;;;;;;;3.92;2.03;;;3.50;99.90;;;;;;5096632;28;20023;-85
2024/01/11 03:39:39;;;;;;;3.22;1.17;;;3.50;99.90;;;;;;5096748;28;20506;-86
2024/01/11 03:42:06;;;;;;;6.50;1.52;;;3.50;99.90;;;;;;5096776;28;20412;-85
2024/01/11 03:44:31;;;;;;;7.22;2.25;;;3.50;99.90;;;;;;5096715;28;20020;-85
2024/01/11 03:46:57;;;;;;;6.80;1.40;;;3.50;99.90;;;;;;5096355;28;20427;-85
2024/01/11 03:49:23;;;;;;;4.70;1.20;;;3.50;99.90;;;;;;5114689;28;21014;-85
2024/01/11 03:51:49;;;;;;;10.98;1.30;;;3.50;99.90;;;;;;5096378;28;20042;-87
2024/01/11 03:54:15;;;;;;;5.28;1.63;;;3.50;99.90;;;;;;5114879;28;20016;-85
2024/01/11 03:56:40;;;;;;;9.45;1.45;;;3.50;99.90;;;;;;5114931;28;20023;-86
2024/01/11 03:59:06;;;;;;;5.15;1.13;;;3.50;99.90;;;;;;5114972;28;20027;-85
2024/01/11 04:01:33;;;;;;;5.75;1.25;;;3.50;99.90;;;;;;5114762;28;20485;-85
2024/01/11 04:03:58;;;;;;;4.68;1.27;;;3.50;99.90;;;;;;5096377;28;20020;-85
2024/01/11 04:06:24;;;;;;;4.85;1.25;;;3.50;99.90;;;;;;5114321;28;20168;-85
2024/01/11 04:08:50;;;;;;;8.57;1.50;;;3.50;99.90;;;;;;5096275;28;20030;-86
2024/01/11 04:11:17;;;;;;;6.00;1.10;;;3.50;99.90;;;;;;5096495;28;20041;-85
2024/01/11 04:13:43;;;;;;;9.88;2.67;;;3.50;99.90;;;;;;5096341;28;20523;-85
2024/01/11 04:16:09;;;;;;;5.32;1.58;;;3.50;99.90;;;;;;5114577;28;20047;-85
2024/01/11 04:18:35;;;;;;;6.35;1.52;;;3.50;99.90;;;;;;5114634;28;20478;-85
2024/01/11 04:21:01;;;;;;;11.00;1.52;;;3.50;99.90;;;;;;5100034;28;20077;-85
2024/01/11 04:23:27;;;;;;;5.53;1.40;;;3.50;99.90;;;;;;5113270;28;20024;-85
2024/01/11 04:25:53;;;;;;;8.52;1.40;;;3.50;99.90;;;;;;5113427;28;20532;-85
2024/01/11 04:28:18;;;;;;;2.85;1.20;;;3.50;99.90;;;;;;5113711;28;20057;-85
2024/01/11 04:30:44;;;;;;;3.20;1.20;;;3.50;99.90;;;;;;5113171;28;20469;-85
2024/01/11 04:33:10;;;;;;;5.75;1.00;;;3.50;99.90;;;;;;5114334;28;20051;-85
2024/01/11 04:35:36;;;;;;;5.68;1.05;;;3.50;99.90;;;;;;5112671;28;20015;-85
2024/01/11 04:38:03;;;;;;;6.53;1.02;;;3.50;99.90;;;;;;5113278;28;20092;-86
2024/01/11 04:40:29;;;;;;;7.13;1.20;;;3.50;99.90;;;;;;5114860;28;20349;-86
2024/01/11 04:42:57;;;;;;;1.70;1.05;;;3.50;99.90;;;;;;5114353;28;20054;-86
2024/01/11 04:45:23;;;;;;;6.40;1.10;;;3.50;99.90;;;;;;5115901;28;20089;-85
2024/01/11 04:47:50;;;;;;;3.90;1.30;;;3.50;99.90;;;;;;5097155;28;20023;-86
2024/01/11 04:50:16;;;;;;;4.38;1.15;;;3.50;99.90;;;;;;5115013;28;20024;-86
2024/01/11 04:52:42;;;;;;;7.45;1.10;;;3.50;99.90;;;;;;5114479;28;20457;-86
2024/01/11 04:55:08;;;;;;;3.25;1.02;;;3.50;99.90;;;;;;5114460;28;20096;-84
2024/01/11 04:57:34;;;;;;;4.50;1.67;;;3.50;99.90;;;;;;5112681;28;20032;-84
2024/01/11 04:59:59;;;;;;;2.85;1.25;;;3.50;99.90;;;;;;5112665;28;20481;-85
2024/01/11 05:02:26;;;;;;;4.03;1.63;;;3.50;99.90;;;;;;5112677;28;20027;-85
2024/01/11 05:04:51;;;;;;;5.88;1.48;;;3.50;99.90;;;;;;5112318;28;20030;-85
2024/01/11 05:07:17;;;;;;;8.40;1.55;;;3.50;99.90;;;;;;5112454;28;20114;-86
2024/01/11 05:09:42;;;;;;;5.03;1.38;;;3.60;99.90;;;;;;5110916;28;20076;-86
2024/01/11 05:12:08;;;;;;;4.47;1.45;;;3.60;99.90;;;;;;5112293;28;20054;-85
2024/01/11 05:14:34;;;;;;;3.75;1.40;;;3.60;99.90;;;;;;5113614;28;20030;-85
2024/01/11 05:17:00;;;;;;;6.03;1.42;;;3.70;99.90;;;;;;5112121;28;20157;-85
2024/01/11 05:19:26;;;;;;;7.50;1.35;;;3.70;99.90;;;;;;5112242;28;20072;-85
2024/01/11 05:21:51;;;;;;;10.80;1.52;;;3.70;99.90;;;;;;5112216;28;20051;-85
2024/01/11 05:24:17;;;;;;;9.63;1.45;;;3.70;99.90;;;;;;5112304;28;20019;-85
2024/01/11 05:26:43;;;;;;;16.65;1.52;;;3.70;99.90;;;;;;5112532;28;20028;-86
2024/01/11 05:29:09;;;;;;;4.82;1.10;;;3.60;99.90;;;;;;5111968;28;20511;-85
2024/01/11 05:31:34;;;;;;;3.22;1.17;;;3.60;99.90;;;;;;5111922;28;20087;-86
2024/01/11 05:34:02;;;;;;;9.35;2.45;;;3.70;99.90;;;;;;5111764;28;20039;-85
2024/01/11 05:36:27;;;;;;;6.85;1.50;;;3.60;99.90;;;;;;5114695;28;20051;-86
2024/01/11 05:38:53;;;;;;;4.45;1.38;;;3.60;99.90;;;;;;5114980;28;20073;-86
2024/01/11 05:41:19;;;;;;;5.78;1.02;;;3.60;99.90;;;;;;5116350;28;20087;-86
2024/01/11 05:43:44;;;;;;;8.68;1.45;;;3.60;99.90;;;;;;5114521;28;20507;-85
2024/01/11 05:46:10;;;;;;;5.53;1.88;;;3.70;99.90;;;;;;5114287;28;20015;-86
2024/01/11 05:48:36;;;;;;;6.45;0.98;;;3.60;99.90;;;;;;5114233;28;20588;-85
2024/01/11 05:51:01;;;;;;;12.25;4.72;;;3.60;99.90;;;;;;5116761;28;20031;-86
2024/01/11 05:53:27;;;;;;;7.15;2.17;;;3.60;99.90;;;;;;5116866;28;20028;-85
2024/01/11 05:55:53;;;;;;;5.88;1.75;;;3.70;99.90;;;;;;5113545;28;20035;-86
2024/01/11 05:58:19;;;;;;;8.80;1.35;;;3.70;99.90;;;;;;5114430;28;20106;-85
2024/01/11 06:00:46;;;;;;;1.33;0.93;;;3.70;99.90;;;;;;5112661;28;20016;-85
2024/01/11 06:03:12;;;;;;;4.20;1.05;;;3.70;99.90;;;;;;5113471;28;20024;-86
2024/01/11 06:05:39;;;;;;;3.15;0.73;;;3.70;99.90;;;;;;5117609;28;20023;-85
2024/01/11 06:08:05;;;;;;;6.88;1.13;;;3.70;99.90;;;;;;5116064;28;20032;-85
2024/01/11 06:10:31;;;;;;;6.50;1.25;;;3.70;99.90;;;;;;5115807;28;20110;-85
2024/01/11 06:12:56;;;;;;;3.25;0.82;;;3.70;99.90;;;;;;5116040;28;20456;-85
2024/01/11 06:15:22;;;;;;;5.88;1.00;;;3.70;99.90;;;;;;5115856;28;20118;-85
2024/01/11 06:17:48;;;;;;;5.85;1.08;;;3.70;99.90;;;;;;5115683;28;20110;-86
2024/01/11 06:20:14;;;;;;;3.92;0.90;;;3.70;99.90;;;;;;5116843;28;20519;-86
2024/01/11 06:22:40;;;;;;;4.30;1.20;;;3.70;99.90;;;;;;5116779;28;20039;-85
2024/01/11 06:25:06;;;;;;;5.70;1.00;;;3.70;99.90;;;;;;5098631;28;20024;-84
2024/01/11 06:27:31;;;;;;;9.15;1.15;;;3.70;99.90;;;;;;5098348;28;20031;-86
2024/01/11 06:29:58;;;;;;;4.40;1.30;;;3.70;99.90;;;;;;5098200;28;20049;-85
2024/01/11 06:32:24;;;;;;;5.40;1.13;;;3.70;99.90;;;;;;5116430;28;20027;-86
2024/01/11 06:34:49;;;;;;;5.80;1.65;;;3.70;99.90;;;;;;5098415;28;20024;-86
2024/01/11 06:37:15;;;;;;;9.45;1.30;;;3.70;99.90;;;;;;5098359;28;20027;-86
2024/01/11 06:39:49;;;;;;;3.47;1.27;;;3.70;99.90;;;;;;5116254;28;20661;-86
2024/01/11 06:42:15;;;;;;;5.05;1.42;;;3.70;99.90;;;;;;5098184;28;20081;-86
2024/01/11 06:44:41;;;;;;;7.82;1.33;;;3.70;99.90;;;;;;5097743;28;20460;-86
2024/01/11 06:47:07;;;;;;;13.57;1.45;;;3.70;99.90;;;;;;5115764;28;20042;-86
2024/01/11 06:49:35;;;;;;;4.35;1.10;;;3.70;99.90;;;;;;5116145;28;20024;-86
2024/01/11 06:52:00;;;;;;;9.05;1.40;;;3.70;99.90;;;;;;5116069;28;20027;-85
2024/01/11 06:54:26;;;;;;;7.60;1.10;;;3.80;99.90;;;;;;5097558;28;20027;-85
2024/01/11 06:56:52;;;;;;;5.15;1.33;;;3.80;99.90;;;;;;5097630;28;20084;-86
2024/01/11 06:59:18;;;;;;;7.05;1.20;;;3.80;99.90;;;;;;5097641;28;20050;-85
2024/01/11 07:01:44;;;;;;;4.57;1.10;;;3.80;99.90;;;;;;5097390;28;20031;-85
2024/01/11 07:04:10;;;;;;;2.95;1.13;;;3.80;99.90;;;;;;5093994;28;20032;-85
2024/01/11 07:06:35;;;;;;;3.05;1.15;;;3.80;99.90;;;;;;5101111;28;20031;-85
2024/01/11 07:09:01;;;;;;;6.97;1.38;;;3.80;99.90;;;;;;5104401;28;20020;-85
2024/01/11 07:11:27;;;;;;;5.38;0.95;;;3.80;99.90;;;;;;5100120;28;20046;-85
2024/01/11 07:13:53;;;;;;;5.40;1.42;;;3.80;99.90;;;;;;5102628;28;20039;-86
2024/01/11 07:16:20;;;;;;;6.43;1.33;;;3.80;99.90;;;;;;5102052;28;20028;-87
2024/01/11 07:18:46;;;;;;;5.53;1.50;;;3.80;99.90;;;;;;5076926;28;20053;-85
2024/01/11 07:21:11;;;;;;;7.22;1.70;;;3.80;99.90;;;;;;5081981;28;20047;-85
2024/01/11 07:23:37;;;;;;;4.70;1.30;;;3.80;99.90;;;;;;5093633;28;20391;-86
2024/01/11 07:26:03;;;;;;;3.60;0.90;;;3.80;99.90;;;;;;5093487;28;20024;-85
2024/01/11 07:28:28;;;;;;;5.18;1.35;;;3.80;99.90;;;;;;5093498;28;20036;-85
2024/01/11 07:30:54;;;;;;;7.03;1.50;;;3.80;99.90;;;;;;5093096;28;20436;-85
2024/01/11 07:33:20;;;;;;;12.38;2.03;;;3.80;99.90;;;;;;5093497;28;20393;-85
2024/01/11 07:35:47;;;;;;;10.75;1.50;;;3.80;99.90;;;;;;5093156;28;20038;-85
2024/01/11 07:38:13;;;;;;;12.20;2.15;;;3.80;99.90;;;;;;5102600;28;20519;-85
2024/01/11 07:40:39;;;;;;;5.30;1.52;;;3.80;99.90;;;;;;5105020;28;20058;-85
2024/01/11 07:43:05;;;;;;;7.00;1.88;;;3.90;99.90;;;;;;5103624;28;20019;-85
2024/01/11 07:45:30;;;;;;;3.38;1.50;;;3.90;99.90;;;;;;5106993;28;20027;-85
2024/01/11 07:48:00;;;;;;;7.13;2.00;;;3.90;99.90;;;;;;5102790;28;20024;-86
2024/01/11 07:50:27;;;;;;;6.25;2.67;;;3.90;99.90;;;;;;5101583;28;20472;-85
2024/01/11 07:52:53;;;;;;;8.10;2.15;;;3.90;99.90;;;;;;5095869;28;20039;-85
2024/01/11 07:55:23;;;;;;;8.10;1.90;;;3.90;99.90;;;;;;5093220;28;20127;-85
2024/01/11 07:57:50;;;;;;;7.35;2.08;;;3.90;99.90;;;;;;5093072;28;20378;-85
2024/01/11 08:00:17;;;;;;;5.40;1.98;;;3.90;99.90;;;;;;5102739;28;20024;-85
2024/01/11 08:02:43;;;;;;;5.07;1.95;;;3.90;99.90;;;;;;5107014;28;20560;-85
2024/01/11 08:05:08;;;;;;;9.60;1.88;;;4.00;99.90;;;;;;5113521;28;20111;-85
2024/01/11 08:07:35;;;;;;;11.00;3.63;;;4.00;99.90;;;;;;5113164;28;20028;-86
2024/01/11 08:10:01;;;;;;;9.23;2.35;;;4.10;99.90;;;;;;5113435;28;20384;-85
2024/01/11 08:12:26;;;;;;;5.05;2.05;;;4.10;99.90;;;;;;5093473;28;20044;-85
2024/01/11 08:14:52;;;;;;;4.07;1.70;;;4.10;99.90;;;;;;5092598;28;20040;-85
2024/01/11 08:17:20;;;;;;;3.17;1.70;;;4.10;99.90;;;;;;5092251;28;20116;-84
2024/01/11 08:19:51;;;;;;;5.25;1.95;;;4.20;99.90;;;;;;5091926;28;20035;-86
2024/01/11 08:22:17;;;;;;;3.20;1.70;;;4.20;99.90;;;;;;5107553;28;20051;-85
2024/01/11 08:24:43;;;;;;;11.15;2.13;;;4.20;99.90;;;;;;5118010;27;20499;-85
2024/01/11 08:27:09;;;;;;;10.20;2.15;;;4.30;99.90;;;;;;5132364;27;20168;-85
2024/01/11 08:29:35;;;;;;;8.60;2.60;;;4.30;99.90;;;;;;5133381;27;20035;-85
2024/01/11 08:32:04;;;;;;;8.45;3.20;;;4.30;99.90;;;;;;5085725;28;20047;-85
2024/01/11 08:34:35;;;;;;;7.28;2.55;;;4.30;99.90;;;;;;5115053;27;20034;-85
2024/01/11 08:37:03;;;;;;;10.30;2.70;;;4.30;99.90;;;;;;5134925;27;20397;-85
2024/01/11 08:39:31;;;;;;;8.30;2.88;;;4.30;99.90;;;;;;5133042;27;20030;-85
2024/01/11 08:41:57;;;;;;;12.40;3.15;;;4.30;99.90;;;;;;5103940;27;20649;-85
2024/01/11 08:44:23;;;;;;;3.20;2.05;;;4.30;99.90;;;;;;5094835;27;20036;-85
2024/01/11 08:46:49;;;;;;;5.15;2.40;;;4.30;99.90;;;;;;5133067;27;20151;-85
2024/01/11 08:49:14;;;;;;;5.90;2.50;;;4.30;99.90;;;;;;5126189;27;20032;-86
2024/01/11 08:51:40;;;;;;;5.78;2.17;;;4.40;99.90;;;;;;5084453;28;20046;-85
2024/01/11 08:54:08;;;;;;;4.32;2.47;;;4.40;99.90;;;;;;5074596;28;20052;-85
2024/01/11 08:56:35;;;;;;;7.05;3.30;;;4.40;99.90;;;;;;5094644;28;20028;-85
2024/01/11 08:59:01;;;;;;;6.05;2.80;;;4.40;99.90;;;;;;5095514;28;20040;-85
2024/01/11 09:01:28;;;;;;;4.65;2.47;;;4.40;99.90;;;;;;5099459;27;20042;-84
2024/01/11 09:03:54;;;;;;;5.18;2.35;;;4.40;99.90;;;;;;5096628;28;20031;-85
2024/01/11 09:06:20;;;;;;;5.80;2.10;;;4.40;99.90;;;;;;5104611;27;20544;-84
2024/01/11 09:08:46;;;;;;;3.95;2.08;;;4.40;99.90;;;;;;5100397;28;20063;-85
2024/01/11 09:11:12;;;;;;;4.55;1.88;;;4.40;99.90;;;;;;5102368;28;20036;-86
2024/01/11 09:13:37;;;;;;;6.22;2.33;;;4.40;99.90;;;;;;5102219;28;20015;-86
2024/01/11 09:16:03;;;;;;;2.55;1.70;;;4.50;99.90;;;;;;5105560;27;20028;-86
2024/01/11 09:18:30;;;;;;;4.47;1.50;;;4.50;99.90;;;;;;5100214;28;20036;-86
2024/01/11 09:20:56;;;;;;;2.50;1.38;;;4.50;99.90;;;;;;5101442;28;20071;-86
2024/01/11 09:23:22;;;;;;;2.38;1.20;;;4.50;99.90;;;;;;5104202;28;20148;-86
2024/01/11 09:25:47;;;;;;;3.58;1.60;;;4.50;99.90;;;;;;5094845;28;20020;-85
2024/01/11 09:28:13;;;;;;;2.30;1.70;;;4.50;99.90;;;;;;5092071;28;20051;-85
2024/01/11 09:30:39;;;;;;;3.00;1.08;;;4.50;99.90;;;;;;5102843;28;20053;-86
2024/01/11 09:33:04;;;;;;;2.45;2.08;;;4.50;99.90;;;;;;5095457;28;20370;-86
2024/01/11 09:35:31;;;;;;;2.60;2.10;;;4.50;99.90;;;;;;5100136;28;20026;-86
2024/01/11 09:37:57;;;;;;;2.20;2.00;;;4.50;99.90;;;;;;5116160;28;20032;-86
2024/01/11 09:40:23;;;;;;;3.65;1.80;;;4.50;99.90;;;;;;5100048;28;20024;-85
2024/01/11 09:42:52;;;;;;;1.80;1.50;;;4.50;99.90;;;;;;5107135;28;20032;-86
2024/01/11 09:45:18;;;;;;;1.20;1.10;;;4.60;99.90;;;;;;5121677;27;20019;-86
2024/01/11 09:47:51;;;;;;;2.35;1.35;;;4.60;99.90;;;;;;5138717;27;20053;-87
2024/01/11 09:50:21;;;;;;;4.20;1.42;;;4.60;99.90;;;;;;5121330;27;20059;-87
2024/01/11 09:52:50;;;;;;;1.30;1.00;;;4.60;99.90;;;;;;5140042;27;20584;-87
2024/01/11 09:55:17;;;;;;;5.20;1.10;;;4.60;99.90;;;;;;5128003;27;20126;-87
2024/01/11 09:57:48;;;;;;;2.58;1.38;;;4.70;99.90;;;;;;5121345;28;20028;-87
2024/01/11 10:00:18;;;;;;;3.70;1.77;;;4.70;99.90;;;;;;5120684;27;20118;-87
2024/01/11 10:02:45;;;;;;;;;;;4.70;99.90;;;;;;5120913;28;20020;-87
2024/01/11 10:05:13;;;;;;;2.00;1.30;;;4.70;99.90;;;;;;5119561;27;20360;-87
2024/01/11 10:07:40;;;;;;;3.20;1.48;;;4.70;99.90;;;;;;5117163;28;20084;-86
2024/01/11 10:10:07;;;;;;;1.88;1.15;;;4.80;99.90;;;;;;5118531;27;20024;-86
2024/01/11 10:12:37;;;;;;;7.38;1.67;;;4.80;99.90;;;;;;5136492;27;20484;-87
2024/01/11 10:15:09;;;;;;;5.45;1.60;;;4.80;99.90;;;;;;5135714;27;20023;-86
2024/01/11 10:17:40;;;;;;;4.60;1.70;;;4.80;99.90;;;;;;5136088;27;20031;-87
2024/01/11 10:20:10;;;;;;;3.28;1.73;;;4.80;99.90;;;;;;5135835;27;20369;-87
2024/01/11 10:22:36;;;;;;;5.20;2.17;;;4.80;99.90;;;;;;5132139;27;20102;-87
2024/01/11 10:25:13;;;;;;;9.60;2.03;;;4.80;99.90;;;;;;5115787;28;20469;-87
2024/01/11 10:27:43;;;;;;;12.48;2.50;;;4.80;99.90;;;;;;5116294;28;20073;-86
2024/01/11 10:30:17;;;;;;;4.35;1.98;;;4.90;99.90;;;;;;5115358;27;20681;-86
2024/01/11 10:32:49;;;;;;;4.75;1.75;;;4.90;99.90;;;;;;5115371;28;20126;-87
2024/01/11 10:35:18;;;;;;;7.00;1.70;;;4.90;99.90;;;;;;5117795;27;20044;-87
2024/01/11 10:37:44;;;;;;;5.55;1.73;;;4.90;99.90;;;;;;5137048;27;20031;-87
2024/01/11 10:40:13;;;;;;;6.95;1.83;;;4.90;99.90;;;;;;5135450;27;20019;-87
2024/01/11 10:42:43;;;;;;;8.80;2.08;;;4.90;99.90;;;;;;5135675;27;20117;-86
2024/01/11 10:45:20;;;;;;;3.85;1.65;;;4.90;99.90;;;;;;5116145;27;20112;-87
2024/01/11 10:47:50;;;;;;;13.43;1.80;;;5.00;99.90;;;;;;5105626;28;20066;-87
2024/01/11 10:50:18;;;;;;;4.47;1.23;;;5.00;99.90;;;;;;5102060;28;20048;-87
2024/01/11 10:52:51;;;;;;;12.52;1.55;;;5.00;99.90;;;;;;5100547;28;20036;-87
2024/01/11 10:55:18;;;;;;;12.38;3.33;;;5.00;99.90;;;;;;5107239;28;20030;-86
2024/01/11 10:57:48;;;;;;;7.72;2.42;;;5.00;99.90;;;;;;5103788;28;20059;-87
2024/01/11 11:00:14;;;;;;;8.50;2.00;;;5.00;99.90;;;;;;5105064;28;20012;-87
2024/01/11 11:02:41;;;;;;;4.20;1.40;;;5.10;99.90;;;;;;5107047;28;20055;-87
2024/01/11 11:05:09;;;;;;;10.75;2.10;;;5.00;99.90;;;;;;5113813;28;20081;-88
2024/01/11 11:07:36;;;;;;;12.73;2.03;;;5.00;99.90;;;;;;5110278;28;20023;-87
2024/01/11 11:10:04;;;;;;;6.38;1.63;;;5.00;99.90;;;;;;5107309;28;20164;-87
2024/01/11 11:12:34;;;;;;;9.05;1.70;;;5.00;99.90;;;;;;5106129;28;20024;-87
2024/01/11 11:15:02;;;;;;;6.72;2.20;;;5.00;99.90;;;;;;5108120;28;20102;-87
2024/01/11 11:17:29;;;;;;;8.27;1.95;;;5.00;99.90;;;;;;5108859;27;20016;-86
2024/01/11 11:20:01;;;;;;;6.22;1.85;;;5.00;99.90;;;;;;5107206;28;20020;-86
2024/01/11 11:22:35;;;;;;;10.18;1.70;;;5.00;99.90;;;;;;5103972;27;20043;-87
2024/01/11 11:25:08;;;;;;;11.45;3.03;;;5.10;99.90;;;;;;5088678;28;20023;-87
2024/01/11 11:27:35;;;;;;;11.52;2.78;;;5.00;99.90;;;;;;5089415;28;20468;-86
2024/01/11 11:30:00;;;;;;;11.52;2.75;;;5.00;99.90;;;;;;5085672;28;20024;-86
2024/01/11 11:32:43;;;;;;;12.57;2.00;;;5.00;99.90;;;;;;5085869;28;20550;-87
2024/01/11 11:35:09;;;;;;;9.30;1.20;;;5.00;99.90;;;;;;5078803;28;20034;-86
2024/01/11 11:37:38;;;;;;;13.85;1.98;;;5.10;99.90;;;;;;5087070;28;20041;-87
2024/01/11 11:40:06;;;;;;;7.53;2.20;;;5.10;99.90;;;;;;5102328;28;20110;-87
2024/01/11 11:42:35;;;;;;;5.43;1.27;;;5.10;99.90;;;;;;5083036;28;20482;-87
2024/01/11 11:45:01;;;;;;;8.05;1.48;;;5.10;99.90;;;;;;5085652;28;20024;-87
2024/01/11 11:47:34;;;;;;;7.85;1.50;;;5.10;99.90;;;;;;5101446;28;20024;-89
2024/01/11 11:50:06;;;;;;;10.95;1.67;;;5.20;99.90;;;;;;5101268;28;20035;-86
2024/01/11 11:52:37;;;;;;;13.00;2.05;;;5.20;99.90;;;;;;5089941;28;20122;-86
2024/01/11 11:55:04;;;;;;;8.52;1.58;;;5.20;99.90;;;;;;5080722;28;20062;-86
2024/01/11 11:57:31;;;;;;;5.97;1.17;;;5.20;99.90;;;;;;5102273;27;20035;-87
2024/01/11 11:59:58;;;;;;;7.97;1.33;;;5.20;99.90;;;;;;5084724;28;20059;-87
2024/01/11 12:02:26;;;;;;;13.90;2.17;;;5.20;99.90;;;;;;5084914;28;20016;-87
2024/01/11 12:04:52;;;;;;;7.03;1.83;;;5.20;99.90;;;;;;5087648;28;20124;-87
2024/01/11 12:07:19;;;;;;;6.75;1.40;;;5.20;99.90;;;;;;5084024;28;20020;-87
2024/01/11 12:09:46;;;;;;;8.20;1.80;;;5.20;99.90;;;;;;5087798;28;20028;-86
2024/01/11 12:12:14;;;;;;;6.05;1.42;;;5.20;99.90;;;;;;5101470;27;20088;-87
2024/01/11 12:14:43;;;;;;;7.55;1.70;;;5.20;99.90;;;;;;5082085;28;20016;-87
2024/01/11 12:17:09;;;;;;;6.13;1.67;;;5.20;99.90;;;;;;5105696;28;20039;-88
2024/01/11 12:19:34;;;;;;;12.75;1.70;;;5.20;99.90;;;;;;5084938;28;20075;-86
2024/01/11 12:22:00;;;;;;;4.75;1.73;;;5.20;99.90;;;;;;5117967;27;20048;-86
2024/01/11 12:24:26;;;;;;;10.95;2.05;;;5.20;99.90;;;;;;5102668;28;20020;-86
2024/01/11 12:26:54;;;;;;;7.47;1.42;;;5.20;99.90;;;;;;5106514;28;20548;-87
2024/01/11 12:29:21;;;;;;;10.73;1.20;;;5.20;99.90;;;;;;5103330;28;20024;-88
2024/01/11 12:31:47;;;;;;;9.45;1.55;;;5.30;99.90;;;;;;5101446;28;20399;-87
2024/01/11 12:34:15;;;;;;;9.70;2.78;;;5.20;99.90;;;;;;5107226;28;20012;-88
2024/01/11 12:36:42;;;;;;;12.02;2.38;;;5.20;99.90;;;;;;5102747;27;20035;-87
2024/01/11 12:39:13;;;;;;;12.15;1.73;;;5.20;99.90;;;;;;5100933;28;20051;-88
2024/01/11 12:41:41;;;;;;;15.80;1.70;;;5.20;99.90;;;;;;5103641;28;20103;-87
2024/01/11 12:44:07;;;;;;;8.98;1.70;;;5.10;99.90;;;;;;5101170;28;20027;-87
2024/01/11 12:46:33;;;;;;;7.88;1.90;;;5.10;99.90;;;;;;5103561;28;20028;-87
2024/01/11 12:48:59;;;;;;;11.45;2.22;;;5.10;99.90;;;;;;5104611;28;20051;-86
2024/01/11 12:51:26;;;;;;;8.18;1.60;;;5.10;99.90;;;;;;5109280;27;20058;-88
2024/01/11 12:53:58;;;;;;;9.48;1.48;;;5.10;99.90;;;;;;5104336;28;20016;-88